sensor_id;sensor_type;location;lat;lon;timestamp;P1;durP1;ratioP1;P2;durP2;ratioP2
3085;SDS011;52812;48.960;9.108;2024-01-15T00:01:30;25.83;;;11.27;;
3085;SDS011;52812;48.960;9.108;2024-01-15T00:03:56;28.60;;;10.40;;
3085;SDS011;52812;48.960;9.108;2024-01-15T00:06:21;24.80;;;10.53;;
3085;SDS011;52812;48.960;9.108;2024-01-15T00:08:47;30.73;;;10.23;;
3085;SDS011;52812;48.960;9.108;2024-01-15T00:11:12;27.20;;;10.83;;
3085;SDS011;52812;48.960;9.108;2024-01-15T00:13:41;25.83;;;10.33;;
3085;SDS011;52812;48.960;9.108;2024-01-15T00:16:07;26.08;;;10.00;;
3085;SDS011;52812;48.960;9.108;2024-01-15T00:18:32;22.53;;;9.40;;
3085;SDS011;52812;48.960;9.108;2024-01-15T00:20:58;28.33;;;10.63;;
3085;SDS011;52812;48.960;9.108;2024-01-15T00:23:23;22.70;;;10.10;;
3085;SDS011;52812;48.960;9.108;2024-01-15T00:25:50;33.60;;;10.57;;
3085;SDS011;52812;48.960;9.108;2024-01-15T00:28:16;27.45;;;10.77;;
3085;SDS011;52812;48.960;9.108;2024-01-15T00:30:42;22.77;;;9.50;;
3085;SDS011;52812;48.960;9.108;2024-01-15T00:33:07;24.13;;;10.43;;
3085;SDS011;52812;48.960;9.108;2024-01-15T00:35:33;28.40;;;11.57;;
3085;SDS011;52812;48.960;9.108;2024-01-15T00:37:59;27.37;;;12.00;;
3085;SDS011;52812;48.960;9.108;2024-01-15T00:40:25;27.50;;;11.57;;
3085;SDS011;52812;48.960;9.108;2024-01-15T00:42:50;24.40;;;10.43;;
3085;SDS011;52812;48.960;9.108;2024-01-15T00:45:16;28.27;;;11.07;;
3085;SDS011;52812;48.960;9.108;2024-01-15T00:47:42;26.50;;;10.83;;
3085;SDS011;52812;48.960;9.108;2024-01-15T00:50:07;27.97;;;10.20;;
3085;SDS011;52812;48.960;9.108;2024-01-15T00:52:33;25.33;;;10.83;;
3085;SDS011;52812;48.960;9.108;2024-01-15T00:54:59;30.73;;;12.17;;
3085;SDS011;52812;48.960;9.108;2024-01-15T00:57:25;32.80;;;11.30;;
3085;SDS011;52812;48.960;9.108;2024-01-15T00:59:50;31.00;;;11.80;;
3085;SDS011;52812;48.960;9.108;2024-01-15T01:02:16;26.93;;;10.63;;
3085;SDS011;52812;48.960;9.108;2024-01-15T01:04:42;33.00;;;10.20;;
3085;SDS011;52812;48.960;9.108;2024-01-15T01:07:07;29.70;;;11.40;;
3085;SDS011;52812;48.960;9.108;2024-01-15T01:09:33;26.23;;;10.90;;
3085;SDS011;52812;48.960;9.108;2024-01-15T01:11:59;36.33;;;13.83;;
3085;SDS011;52812;48.960;9.108;2024-01-15T01:14:24;23.37;;;10.73;;
3085;SDS011;52812;48.960;9.108;2024-01-15T01:16:50;33.87;;;12.20;;
3085;SDS011;52812;48.960;9.108;2024-01-15T01:19:15;30.10;;;11.13;;
3085;SDS011;52812;48.960;9.108;2024-01-15T01:21:41;31.50;;;11.73;;
3085;SDS011;52812;48.960;9.108;2024-01-15T01:24:07;28.20;;;10.30;;
3085;SDS011;52812;48.960;9.108;2024-01-15T01:26:32;30.63;;;11.13;;
3085;SDS011;52812;48.960;9.108;2024-01-15T01:28:58;32.07;;;12.00;;
3085;SDS011;52812;48.960;9.108;2024-01-15T01:31:24;30.30;;;10.37;;
3085;SDS011;52812;48.960;9.108;2024-01-15T01:33:50;29.53;;;11.63;;
3085;SDS011;52812;48.960;9.108;2024-01-15T01:36:15;27.20;;;10.90;;
3085;SDS011;52812;48.960;9.108;2024-01-15T01:38:41;34.33;;;11.60;;
3085;SDS011;52812;48.960;9.108;2024-01-15T01:41:07;32.60;;;11.80;;
3085;SDS011;52812;48.960;9.108;2024-01-15T01:43:33;25.93;;;11.37;;
3085;SDS011;52812;48.960;9.108;2024-01-15T01:45:59;25.53;;;11.37;;
3085;SDS011;52812;48.960;9.108;2024-01-15T01:48:26;32.97;;;11.23;;
3085;SDS011;52812;48.960;9.108;2024-01-15T01:50:55;29.70;;;11.10;;
3085;SDS011;52812;48.960;9.108;2024-01-15T01:53:27;28.47;;;11.30;;
3085;SDS011;52812;48.960;9.108;2024-01-15T01:55:54;27.90;;;10.27;;
3085;SDS011;52812;48.960;9.108;2024-01-15T01:58:21;29.07;;;11.50;;
3085;SDS011;52812;48.960;9.108;2024-01-15T02:00:46;31.57;;;11.33;;
3085;SDS011;52812;48.960;9.108;2024-01-15T02:03:13;25.70;;;10.27;;
3085;SDS011;52812;48.960;9.108;2024-01-15T02:05:39;30.43;;;11.40;;
3085;SDS011;52812;48.960;9.108;2024-01-15T02:08:05;30.30;;;11.97;;
3085;SDS011;52812;48.960;9.108;2024-01-15T02:10:31;32.70;;;11.40;;
3085;SDS011;52812;48.960;9.108;2024-01-15T02:12:57;28.57;;;10.90;;
3085;SDS011;52812;48.960;9.108;2024-01-15T02:15:23;24.93;;;10.93;;
3085;SDS011;52812;48.960;9.108;2024-01-15T02:20:25;21.70;;;10.40;;
3085;SDS011;52812;48.960;9.108;2024-01-15T02:22:51;25.17;;;11.57;;
3085;SDS011;52812;48.960;9.108;2024-01-15T02:25:17;24.70;;;10.93;;
3085;SDS011;52812;48.960;9.108;2024-01-15T02:27:43;27.03;;;10.30;;
3085;SDS011;52812;48.960;9.108;2024-01-15T02:30:09;22.40;;;10.60;;
3085;SDS011;52812;48.960;9.108;2024-01-15T02:32:37;25.47;;;9.97;;
3085;SDS011;52812;48.960;9.108;2024-01-15T02:35:04;26.53;;;11.23;;
3085;SDS011;52812;48.960;9.108;2024-01-15T02:37:29;26.33;;;10.03;;
3085;SDS011;52812;48.960;9.108;2024-01-15T02:39:55;25.87;;;11.20;;
3085;SDS011;52812;48.960;9.108;2024-01-15T02:42:21;21.43;;;10.00;;
3085;SDS011;52812;48.960;9.108;2024-01-15T02:44:46;24.73;;;10.43;;
3085;SDS011;52812;48.960;9.108;2024-01-15T02:47:13;21.67;;;9.17;;
3085;SDS011;52812;48.960;9.108;2024-01-15T02:49:39;23.97;;;10.50;;
3085;SDS011;52812;48.960;9.108;2024-01-15T02:52:05;26.07;;;10.27;;
3085;SDS011;52812;48.960;9.108;2024-01-15T02:54:31;19.53;;;9.70;;
3085;SDS011;52812;48.960;9.108;2024-01-15T02:56:56;24.80;;;9.90;;
3085;SDS011;52812;48.960;9.108;2024-01-15T02:59:22;22.43;;;9.73;;
3085;SDS011;52812;48.960;9.108;2024-01-15T03:01:47;25.40;;;10.70;;
3085;SDS011;52812;48.960;9.108;2024-01-15T03:04:13;28.77;;;11.10;;
3085;SDS011;52812;48.960;9.108;2024-01-15T03:06:39;26.57;;;10.57;;
3085;SDS011;52812;48.960;9.108;2024-01-15T03:09:04;29.60;;;10.70;;
3085;SDS011;52812;48.960;9.108;2024-01-15T03:11:36;19.07;;;8.77;;
3085;SDS011;52812;48.960;9.108;2024-01-15T03:14:03;23.63;;;11.07;;
3085;SDS011;52812;48.960;9.108;2024-01-15T03:16:29;26.00;;;10.20;;
3085;SDS011;52812;48.960;9.108;2024-01-15T03:18:54;22.93;;;9.77;;
3085;SDS011;52812;48.960;9.108;2024-01-15T03:21:20;24.53;;;10.47;;
3085;SDS011;52812;48.960;9.108;2024-01-15T03:23:46;26.70;;;10.73;;
3085;SDS011;52812;48.960;9.108;2024-01-15T03:26:11;25.50;;;10.63;;
3085;SDS011;52812;48.960;9.108;2024-01-15T03:28:37;25.50;;;10.73;;
3085;SDS011;52812;48.960;9.108;2024-01-15T03:31:02;25.20;;;11.10;;
3085;SDS011;52812;48.960;9.108;2024-01-15T03:33:28;26.37;;;10.60;;
3085;SDS011;52812;48.960;9.108;2024-01-15T03:35:54;26.00;;;11.30;;
3085;SDS011;52812;48.960;9.108;2024-01-15T03:38:20;24.40;;;10.70;;
3085;SDS011;52812;48.960;9.108;2024-01-15T03:40:47;22.23;;;10.47;;
3085;SDS011;52812;48.960;9.108;2024-01-15T03:43:13;22.57;;;10.23;;
3085;SDS011;52812;48.960;9.108;2024-01-15T03:45:39;23.10;;;9.80;;
3085;SDS011;52812;48.960;9.108;2024-01-15T03:48:04;21.07;;;9.60;;
3085;SDS011;52812;48.960;9.108;2024-01-15T03:50:30;24.63;;;11.10;;
3085;SDS011;52812;48.960;9.108;2024-01-15T03:52:56;23.23;;;10.00;;
3085;SDS011;52812;48.960;9.108;2024-01-15T03:55:21;23.27;;;10.63;;
3085;SDS011;52812;48.960;9.108;2024-01-15T03:57:47;20.53;;;9.83;;
3085;SDS011;52812;48.960;9.108;2024-01-15T04:00:14;21.63;;;9.53;;
3085;SDS011;52812;48.960;9.108;2024-01-15T04:02:42;25.37;;;10.00;;
3085;SDS011;52812;48.960;9.108;2024-01-15T04:05:09;19.83;;;9.53;;
3085;SDS011;52812;48.960;9.108;2024-01-15T04:07:34;20.87;;;9.63;;
3085;SDS011;52812;48.960;9.108;2024-01-15T04:10:00;20.67;;;9.63;;
3085;SDS011;52812;48.960;9.108;2024-01-15T04:12:25;20.43;;;10.43;;
3085;SDS011;52812;48.960;9.108;2024-01-15T04:14:51;16.90;;;8.93;;
3085;SDS011;52812;48.960;9.108;2024-01-15T04:17:17;22.97;;;10.77;;
3085;SDS011;52812;48.960;9.108;2024-01-15T04:19:45;23.67;;;12.20;;
3085;SDS011;52812;48.960;9.108;2024-01-15T04:22:14;24.27;;;10.80;;
3085;SDS011;52812;48.960;9.108;2024-01-15T04:24:39;24.70;;;10.03;;
3085;SDS011;52812;48.960;9.108;2024-01-15T04:27:05;21.67;;;10.27;;
3085;SDS011;52812;48.960;9.108;2024-01-15T04:29:32;20.07;;;9.57;;
3085;SDS011;52812;48.960;9.108;2024-01-15T04:31:57;22.43;;;10.30;;
3085;SDS011;52812;48.960;9.108;2024-01-15T04:34:23;25.97;;;10.03;;
3085;SDS011;52812;48.960;9.108;2024-01-15T04:36:48;22.73;;;9.30;;
3085;SDS011;52812;48.960;9.108;2024-01-15T04:39:14;21.70;;;10.03;;
3085;SDS011;52812;48.960;9.108;2024-01-15T04:41:40;23.60;;;10.80;;
3085;SDS011;52812;48.960;9.108;2024-01-15T04:44:05;23.57;;;10.47;;
3085;SDS011;52812;48.960;9.108;2024-01-15T04:46:31;24.30;;;10.73;;
3085;SDS011;52812;48.960;9.108;2024-01-15T04:48:56;18.63;;;9.27;;
3085;SDS011;52812;48.960;9.108;2024-01-15T04:51:22;20.47;;;9.37;;
3085;SDS011;52812;48.960;9.108;2024-01-15T04:53:48;20.10;;;8.23;;
3085;SDS011;52812;48.960;9.108;2024-01-15T04:56:13;21.27;;;9.23;;
3085;SDS011;52812;48.960;9.108;2024-01-15T04:58:39;17.87;;;9.30;;
3085;SDS011;52812;48.960;9.108;2024-01-15T05:01:04;20.53;;;10.30;;
3085;SDS011;52812;48.960;9.108;2024-01-15T05:03:30;21.80;;;9.47;;
3085;SDS011;52812;48.960;9.108;2024-01-15T05:05:56;23.87;;;10.00;;
3085;SDS011;52812;48.960;9.108;2024-01-15T05:08:21;16.57;;;9.07;;
3085;SDS011;52812;48.960;9.108;2024-01-15T05:10:47;21.03;;;10.60;;
3085;SDS011;52812;48.960;9.108;2024-01-15T05:13:13;17.80;;;8.83;;
3085;SDS011;52812;48.960;9.108;2024-01-15T05:15:38;24.07;;;10.60;;
3085;SDS011;52812;48.960;9.108;2024-01-15T05:18:04;19.20;;;10.10;;
3085;SDS011;52812;48.960;9.108;2024-01-15T05:20:31;23.83;;;9.03;;
3085;SDS011;52812;48.960;9.108;2024-01-15T05:22:56;19.10;;;9.70;;
3085;SDS011;52812;48.960;9.108;2024-01-15T05:25:22;22.50;;;10.30;;
3085;SDS011;52812;48.960;9.108;2024-01-15T05:27:48;19.43;;;9.60;;
3085;SDS011;52812;48.960;9.108;2024-01-15T05:30:13;21.53;;;9.30;;
3085;SDS011;52812;48.960;9.108;2024-01-15T05:32:39;20.40;;;9.43;;
3085;SDS011;52812;48.960;9.108;2024-01-15T05:35:05;19.27;;;8.93;;
3085;SDS011;52812;48.960;9.108;2024-01-15T05:37:31;16.10;;;8.67;;
3085;SDS011;52812;48.960;9.108;2024-01-15T05:39:56;17.37;;;8.03;;
3085;SDS011;52812;48.960;9.108;2024-01-15T05:42:22;18.80;;;8.40;;
3085;SDS011;52812;48.960;9.108;2024-01-15T05:44:49;17.90;;;8.67;;
3085;SDS011;52812;48.960;9.108;2024-01-15T05:47:14;18.80;;;8.53;;
3085;SDS011;52812;48.960;9.108;2024-01-15T05:49:40;16.97;;;8.27;;
3085;SDS011;52812;48.960;9.108;2024-01-15T05:52:06;18.67;;;9.47;;
3085;SDS011;52812;48.960;9.108;2024-01-15T05:54:31;16.20;;;8.37;;
3085;SDS011;52812;48.960;9.108;2024-01-15T05:56:57;22.20;;;10.07;;
3085;SDS011;52812;48.960;9.108;2024-01-15T05:59:23;17.57;;;8.70;;
3085;SDS011;52812;48.960;9.108;2024-01-15T06:01:48;17.53;;;9.27;;
3085;SDS011;52812;48.960;9.108;2024-01-15T06:04:14;17.97;;;8.90;;
3085;SDS011;52812;48.960;9.108;2024-01-15T06:06:40;20.60;;;9.13;;
3085;SDS011;52812;48.960;9.108;2024-01-15T06:09:05;16.60;;;9.37;;
3085;SDS011;52812;48.960;9.108;2024-01-15T06:11:31;16.20;;;8.60;;
3085;SDS011;52812;48.960;9.108;2024-01-15T06:13:57;18.97;;;8.70;;
3085;SDS011;52812;48.960;9.108;2024-01-15T06:16:23;16.47;;;8.63;;
3085;SDS011;52812;48.960;9.108;2024-01-15T06:18:49;18.73;;;9.50;;
3085;SDS011;52812;48.960;9.108;2024-01-15T06:21:15;17.57;;;9.10;;
3085;SDS011;52812;48.960;9.108;2024-01-15T06:23:41;18.50;;;8.40;;
3085;SDS011;52812;48.960;9.108;2024-01-15T06:26:07;23.60;;;11.43;;
3085;SDS011;52812;48.960;9.108;2024-01-15T06:28:32;24.57;;;11.87;;
3085;SDS011;52812;48.960;9.108;2024-01-15T06:30:58;16.20;;;9.10;;
3085;SDS011;52812;48.960;9.108;2024-01-15T06:33:24;17.80;;;9.23;;
3085;SDS011;52812;48.960;9.108;2024-01-15T06:35:50;17.47;;;8.17;;
3085;SDS011;52812;48.960;9.108;2024-01-15T06:38:16;17.00;;;8.67;;
3085;SDS011;52812;48.960;9.108;2024-01-15T06:40:41;17.23;;;8.30;;
3085;SDS011;52812;48.960;9.108;2024-01-15T06:43:12;19.23;;;9.43;;
3085;SDS011;52812;48.960;9.108;2024-01-15T06:45:38;20.47;;;9.00;;
3085;SDS011;52812;48.960;9.108;2024-01-15T06:48:04;15.50;;;8.80;;
3085;SDS011;52812;48.960;9.108;2024-01-15T06:50:33;20.90;;;10.00;;
3085;SDS011;52812;48.960;9.108;2024-01-15T06:53:01;18.23;;;10.77;;
3085;SDS011;52812;48.960;9.108;2024-01-15T06:55:27;16.20;;;9.47;;
3085;SDS011;52812;48.960;9.108;2024-01-15T06:57:53;23.17;;;11.97;;
3085;SDS011;52812;48.960;9.108;2024-01-15T07:00:18;20.10;;;11.00;;
3085;SDS011;52812;48.960;9.108;2024-01-15T07:02:44;23.37;;;12.53;;
3085;SDS011;52812;48.960;9.108;2024-01-15T07:05:10;23.90;;;12.23;;
3085;SDS011;52812;48.960;9.108;2024-01-15T07:07:36;23.23;;;12.90;;
3085;SDS011;52812;48.960;9.108;2024-01-15T07:10:02;22.00;;;12.30;;
3085;SDS011;52812;48.960;9.108;2024-01-15T07:12:29;17.47;;;9.93;;
3085;SDS011;52812;48.960;9.108;2024-01-15T07:14:55;17.53;;;8.90;;
3085;SDS011;52812;48.960;9.108;2024-01-15T07:17:21;16.77;;;8.63;;
3085;SDS011;52812;48.960;9.108;2024-01-15T07:19:47;18.63;;;9.40;;
3085;SDS011;52812;48.960;9.108;2024-01-15T07:22:15;21.13;;;10.07;;
3085;SDS011;52812;48.960;9.108;2024-01-15T07:24:42;13.60;;;7.70;;
3085;SDS011;52812;48.960;9.108;2024-01-15T07:27:08;17.30;;;8.90;;
3085;SDS011;52812;48.960;9.108;2024-01-15T07:29:34;14.80;;;7.73;;
3085;SDS011;52812;48.960;9.108;2024-01-15T07:32:02;18.17;;;8.57;;
3085;SDS011;52812;48.960;9.108;2024-01-15T07:34:28;19.10;;;9.40;;
3085;SDS011;52812;48.960;9.108;2024-01-15T07:36:54;16.17;;;8.37;;
3085;SDS011;52812;48.960;9.108;2024-01-15T07:39:20;18.77;;;9.83;;
3085;SDS011;52812;48.960;9.108;2024-01-15T07:41:45;18.77;;;9.43;;
3085;SDS011;52812;48.960;9.108;2024-01-15T07:44:11;19.10;;;9.70;;
3085;SDS011;52812;48.960;9.108;2024-01-15T07:46:36;15.33;;;8.10;;
3085;SDS011;52812;48.960;9.108;2024-01-15T07:49:02;18.23;;;9.03;;
3085;SDS011;52812;48.960;9.108;2024-01-15T07:51:28;16.27;;;8.37;;
3085;SDS011;52812;48.960;9.108;2024-01-15T07:53:54;14.20;;;8.93;;
3085;SDS011;52812;48.960;9.108;2024-01-15T07:56:22;16.43;;;8.37;;
3085;SDS011;52812;48.960;9.108;2024-01-15T07:58:48;14.87;;;9.07;;
3085;SDS011;52812;48.960;9.108;2024-01-15T08:01:14;20.37;;;8.97;;
3085;SDS011;52812;48.960;9.108;2024-01-15T08:03:40;16.73;;;8.53;;
3085;SDS011;52812;48.960;9.108;2024-01-15T08:06:05;16.53;;;8.83;;
3085;SDS011;52812;48.960;9.108;2024-01-15T08:08:31;16.63;;;8.40;;
3085;SDS011;52812;48.960;9.108;2024-01-15T08:10:57;14.80;;;8.23;;
3085;SDS011;52812;48.960;9.108;2024-01-15T08:13:22;14.23;;;7.90;;
3085;SDS011;52812;48.960;9.108;2024-01-15T08:15:48;16.77;;;8.33;;
3085;SDS011;52812;48.960;9.108;2024-01-15T08:18:15;15.43;;;8.60;;
3085;SDS011;52812;48.960;9.108;2024-01-15T08:20:40;15.03;;;8.37;;
3085;SDS011;52812;48.960;9.108;2024-01-15T08:23:06;19.13;;;9.47;;
3085;SDS011;52812;48.960;9.108;2024-01-15T08:25:32;18.77;;;10.47;;
3085;SDS011;52812;48.960;9.108;2024-01-15T08:27:57;15.40;;;9.13;;
3085;SDS011;52812;48.960;9.108;2024-01-15T08:30:23;18.20;;;9.33;;
3085;SDS011;52812;48.960;9.108;2024-01-15T08:32:56;17.00;;;9.80;;
3085;SDS011;52812;48.960;9.108;2024-01-15T08:35:22;16.70;;;8.83;;
3085;SDS011;52812;48.960;9.108;2024-01-15T08:37:54;17.10;;;8.17;;
3085;SDS011;52812;48.960;9.108;2024-01-15T08:40:20;16.60;;;8.20;;
3085;SDS011;52812;48.960;9.108;2024-01-15T08:42:46;16.77;;;9.50;;
3085;SDS011;52812;48.960;9.108;2024-01-15T08:45:11;18.30;;;10.63;;
3085;SDS011;52812;48.960;9.108;2024-01-15T08:47:37;26.13;;;12.10;;
3085;SDS011;52812;48.960;9.108;2024-01-15T08:50:03;19.57;;;9.50;;
3085;SDS011;52812;48.960;9.108;2024-01-15T08:52:29;21.57;;;10.40;;
3085;SDS011;52812;48.960;9.108;2024-01-15T08:54:56;17.07;;;8.33;;
3085;SDS011;52812;48.960;9.108;2024-01-15T08:57:22;18.40;;;9.03;;
3085;SDS011;52812;48.960;9.108;2024-01-15T08:59:47;20.40;;;8.80;;
3085;SDS011;52812;48.960;9.108;2024-01-15T09:02:13;12.90;;;7.40;;
3085;SDS011;52812;48.960;9.108;2024-01-15T09:04:39;13.83;;;7.43;;
3085;SDS011;52812;48.960;9.108;2024-01-15T09:07:05;13.93;;;7.23;;
3085;SDS011;52812;48.960;9.108;2024-01-15T09:09:32;14.90;;;8.40;;
3085;SDS011;52812;48.960;9.108;2024-01-15T09:11:57;13.50;;;7.33;;
3085;SDS011;52812;48.960;9.108;2024-01-15T09:14:23;13.83;;;7.83;;
3085;SDS011;52812;48.960;9.108;2024-01-15T09:16:50;14.10;;;7.53;;
3085;SDS011;52812;48.960;9.108;2024-01-15T09:19:16;15.10;;;8.00;;
3085;SDS011;52812;48.960;9.108;2024-01-15T09:21:42;13.70;;;7.10;;
3085;SDS011;52812;48.960;9.108;2024-01-15T09:24:07;12.53;;;6.47;;
3085;SDS011;52812;48.960;9.108;2024-01-15T09:26:33;11.00;;;6.57;;
3085;SDS011;52812;48.960;9.108;2024-01-15T09:28:59;15.77;;;7.37;;
3085;SDS011;52812;48.960;9.108;2024-01-15T09:31:25;17.90;;;9.10;;
3085;SDS011;52812;48.960;9.108;2024-01-15T09:33:52;11.10;;;7.63;;
3085;SDS011;52812;48.960;9.108;2024-01-15T09:36:21;14.93;;;7.77;;
3085;SDS011;52812;48.960;9.108;2024-01-15T09:38:47;11.33;;;6.50;;
3085;SDS011;52812;48.960;9.108;2024-01-15T09:41:13;9.87;;;5.97;;
3085;SDS011;52812;48.960;9.108;2024-01-15T09:43:40;14.87;;;6.90;;
3085;SDS011;52812;48.960;9.108;2024-01-15T09:46:05;11.77;;;6.77;;
3085;SDS011;52812;48.960;9.108;2024-01-15T09:48:31;11.63;;;6.60;;
3085;SDS011;52812;48.960;9.108;2024-01-15T09:50:59;14.17;;;6.13;;
3085;SDS011;52812;48.960;9.108;2024-01-15T09:53:27;10.47;;;5.87;;
3085;SDS011;52812;48.960;9.108;2024-01-15T09:55:52;11.73;;;6.00;;
3085;SDS011;52812;48.960;9.108;2024-01-15T09:58:21;11.53;;;5.83;;
3085;SDS011;52812;48.960;9.108;2024-01-15T10:00:47;11.00;;;6.07;;
3085;SDS011;52812;48.960;9.108;2024-01-15T10:03:15;11.10;;;5.37;;
3085;SDS011;52812;48.960;9.108;2024-01-15T10:05:40;9.50;;;5.53;;
3085;SDS011;52812;48.960;9.108;2024-01-15T10:08:07;9.80;;;5.63;;
3085;SDS011;52812;48.960;9.108;2024-01-15T10:10:32;9.13;;;5.40;;
3085;SDS011;52812;48.960;9.108;2024-01-15T10:13:01;10.20;;;5.63;;
3085;SDS011;52812;48.960;9.108;2024-01-15T10:15:28;8.37;;;4.77;;
3085;SDS011;52812;48.960;9.108;2024-01-15T10:17:54;9.13;;;5.40;;
3085;SDS011;52812;48.960;9.108;2024-01-15T10:20:19;7.60;;;5.27;;
3085;SDS011;52812;48.960;9.108;2024-01-15T10:22:47;8.23;;;5.00;;
3085;SDS011;52812;48.960;9.108;2024-01-15T10:25:13;10.27;;;4.70;;
3085;SDS011;52812;48.960;9.108;2024-01-15T10:27:42;10.20;;;5.13;;
3085;SDS011;52812;48.960;9.108;2024-01-15T10:30:08;7.63;;;4.50;;
3085;SDS011;52812;48.960;9.108;2024-01-15T10:32:35;7.80;;;4.97;;
3085;SDS011;52812;48.960;9.108;2024-01-15T10:35:01;10.90;;;4.53;;
3085;SDS011;52812;48.960;9.108;2024-01-15T10:37:27;8.97;;;5.17;;
3085;SDS011;52812;48.960;9.108;2024-01-15T10:39:52;8.40;;;4.57;;
3085;SDS011;52812;48.960;9.108;2024-01-15T10:42:18;8.70;;;5.80;;
3085;SDS011;52812;48.960;9.108;2024-01-15T10:44:44;7.20;;;5.17;;
3085;SDS011;52812;48.960;9.108;2024-01-15T10:47:12;8.37;;;4.97;;
3085;SDS011;52812;48.960;9.108;2024-01-15T10:49:38;7.90;;;5.07;;
3085;SDS011;52812;48.960;9.108;2024-01-15T10:52:04;8.70;;;4.80;;
3085;SDS011;52812;48.960;9.108;2024-01-15T10:54:30;20.83;;;5.50;;
3085;SDS011;52812;48.960;9.108;2024-01-15T10:56:57;10.57;;;5.60;;
3085;SDS011;52812;48.960;9.108;2024-01-15T10:59:23;9.80;;;5.47;;
3085;SDS011;52812;48.960;9.108;2024-01-15T11:01:49;9.60;;;5.53;;
3085;SDS011;52812;48.960;9.108;2024-01-15T11:04:18;10.60;;;5.80;;
3085;SDS011;52812;48.960;9.108;2024-01-15T11:06:46;11.63;;;5.80;;
3085;SDS011;52812;48.960;9.108;2024-01-15T11:09:14;10.87;;;5.67;;
3085;SDS011;52812;48.960;9.108;2024-01-15T11:11:44;8.70;;;5.10;;
3085;SDS011;52812;48.960;9.108;2024-01-15T11:14:33;8.60;;;5.03;;
3085;SDS011;52812;48.960;9.108;2024-01-15T11:17:04;8.60;;;5.20;;
3085;SDS011;52812;48.960;9.108;2024-01-15T11:19:44;8.97;;;4.87;;
3085;SDS011;52812;48.960;9.108;2024-01-15T11:24:54;6.63;;;4.43;;
3085;SDS011;52812;48.960;9.108;2024-01-15T11:27:39;9.73;;;5.27;;
3085;SDS011;52812;48.960;9.108;2024-01-15T11:30:09;9.80;;;5.20;;
3085;SDS011;52812;48.960;9.108;2024-01-15T11:32:36;7.90;;;5.17;;
3085;SDS011;52812;48.960;9.108;2024-01-15T11:35:06;7.20;;;4.60;;
3085;SDS011;52812;48.960;9.108;2024-01-15T11:43:00;6.67;;;5.13;;
3085;SDS011;52812;48.960;9.108;2024-01-15T11:45:28;9.70;;;5.70;;
3085;SDS011;52812;48.960;9.108;2024-01-15T11:50:46;9.10;;;5.43;;
3085;SDS011;52812;48.960;9.108;2024-01-15T11:56:02;9.63;;;5.87;;
3085;SDS011;52812;48.960;9.108;2024-01-15T11:58:29;11.83;;;6.30;;
3085;SDS011;52812;48.960;9.108;2024-01-15T12:00:55;12.03;;;6.97;;
3085;SDS011;52812;48.960;9.108;2024-01-15T12:03:21;9.33;;;6.30;;
3085;SDS011;52812;48.960;9.108;2024-01-15T12:05:48;8.73;;;5.47;;
3085;SDS011;52812;48.960;9.108;2024-01-15T12:08:13;10.10;;;5.90;;
3085;SDS011;52812;48.960;9.108;2024-01-15T12:10:39;9.50;;;5.63;;
3085;SDS011;52812;48.960;9.108;2024-01-15T12:13:15;9.33;;;5.73;;
3085;SDS011;52812;48.960;9.108;2024-01-15T12:15:43;8.17;;;5.27;;
3085;SDS011;52812;48.960;9.108;2024-01-15T12:18:11;8.20;;;5.23;;
3085;SDS011;52812;48.960;9.108;2024-01-15T12:20:39;9.53;;;6.17;;
3085;SDS011;52812;48.960;9.108;2024-01-15T12:23:05;10.77;;;5.07;;
3085;SDS011;52812;48.960;9.108;2024-01-15T12:25:31;11.00;;;5.40;;
3085;SDS011;52812;48.960;9.108;2024-01-15T12:27:58;9.37;;;5.00;;
3085;SDS011;52812;48.960;9.108;2024-01-15T12:30:28;7.67;;;5.00;;
3085;SDS011;52812;48.960;9.108;2024-01-15T12:32:56;9.47;;;5.33;;
3085;SDS011;52812;48.960;9.108;2024-01-15T12:35:23;10.80;;;5.93;;
3085;SDS011;52812;48.960;9.108;2024-01-15T12:37:53;8.50;;;5.23;;
3085;SDS011;52812;48.960;9.108;2024-01-15T12:40:19;8.70;;;5.13;;
3085;SDS011;52812;48.960;9.108;2024-01-15T12:42:46;10.23;;;5.17;;
3085;SDS011;52812;48.960;9.108;2024-01-15T12:45:12;7.93;;;4.87;;
3085;SDS011;52812;48.960;9.108;2024-01-15T12:47:38;9.47;;;5.60;;
3085;SDS011;52812;48.960;9.108;2024-01-15T12:50:11;8.27;;;5.27;;
3085;SDS011;52812;48.960;9.108;2024-01-15T12:52:39;8.57;;;5.20;;
3085;SDS011;52812;48.960;9.108;2024-01-15T12:55:06;10.90;;;6.30;;
3085;SDS011;52812;48.960;9.108;2024-01-15T12:57:33;11.47;;;5.60;;
3085;SDS011;52812;48.960;9.108;2024-01-15T12:59:59;15.10;;;5.70;;
3085;SDS011;52812;48.960;9.108;2024-01-15T13:02:25;11.33;;;6.07;;
3085;SDS011;52812;48.960;9.108;2024-01-15T13:04:51;12.10;;;6.40;;
3085;SDS011;52812;48.960;9.108;2024-01-15T13:07:17;10.40;;;6.07;;
3085;SDS011;52812;48.960;9.108;2024-01-15T13:09:42;11.30;;;6.30;;
3085;SDS011;52812;48.960;9.108;2024-01-15T13:12:08;11.63;;;6.53;;
3085;SDS011;52812;48.960;9.108;2024-01-15T13:14:34;9.20;;;6.20;;
3085;SDS011;52812;48.960;9.108;2024-01-15T13:17:00;12.53;;;7.30;;
3085;SDS011;52812;48.960;9.108;2024-01-15T13:19:26;11.13;;;6.20;;
3085;SDS011;52812;48.960;9.108;2024-01-15T13:21:52;11.60;;;6.60;;
3085;SDS011;52812;48.960;9.108;2024-01-15T13:24:18;11.30;;;6.13;;
3085;SDS011;52812;48.960;9.108;2024-01-15T13:26:44;11.30;;;6.27;;
3085;SDS011;52812;48.960;9.108;2024-01-15T13:29:10;10.47;;;7.00;;
3085;SDS011;52812;48.960;9.108;2024-01-15T13:31:36;12.17;;;8.00;;
3085;SDS011;52812;48.960;9.108;2024-01-15T13:34:03;11.93;;;7.17;;
3085;SDS011;52812;48.960;9.108;2024-01-15T13:36:28;13.20;;;7.60;;
3085;SDS011;52812;48.960;9.108;2024-01-15T13:38:54;19.00;;;9.37;;
3085;SDS011;52812;48.960;9.108;2024-01-15T13:41:20;11.67;;;7.20;;
3085;SDS011;52812;48.960;9.108;2024-01-15T13:43:53;12.83;;;7.10;;
3085;SDS011;52812;48.960;9.108;2024-01-15T13:46:20;11.03;;;7.10;;
3085;SDS011;52812;48.960;9.108;2024-01-15T13:48:48;10.10;;;6.83;;
3085;SDS011;52812;48.960;9.108;2024-01-15T13:51:13;9.97;;;6.70;;
3085;SDS011;52812;48.960;9.108;2024-01-15T13:53:39;9.33;;;7.17;;
3085;SDS011;52812;48.960;9.108;2024-01-15T13:56:05;11.33;;;7.43;;
3085;SDS011;52812;48.960;9.108;2024-01-15T13:58:32;12.03;;;7.20;;
3085;SDS011;52812;48.960;9.108;2024-01-15T14:00:58;13.63;;;6.97;;
3085;SDS011;52812;48.960;9.108;2024-01-15T14:03:24;14.20;;;7.27;;
3085;SDS011;52812;48.960;9.108;2024-01-15T14:05:50;14.00;;;7.93;;
3085;SDS011;52812;48.960;9.108;2024-01-15T14:08:16;14.67;;;7.83;;
3085;SDS011;52812;48.960;9.108;2024-01-15T14:10:42;10.70;;;7.30;;
3085;SDS011;52812;48.960;9.108;2024-01-15T14:13:08;13.40;;;7.93;;
3085;SDS011;52812;48.960;9.108;2024-01-15T14:15:34;12.83;;;7.93;;
3085;SDS011;52812;48.960;9.108;2024-01-15T14:18:00;14.33;;;8.30;;
3085;SDS011;52812;48.960;9.108;2024-01-15T14:20:26;14.10;;;7.90;;
3085;SDS011;52812;48.960;9.108;2024-01-15T14:22:52;15.13;;;7.93;;
3085;SDS011;52812;48.960;9.108;2024-01-15T14:25:19;15.27;;;8.60;;
3085;SDS011;52812;48.960;9.108;2024-01-15T14:27:45;15.57;;;8.27;;
3085;SDS011;52812;48.960;9.108;2024-01-15T14:30:10;12.50;;;7.97;;
3085;SDS011;52812;48.960;9.108;2024-01-15T14:32:38;15.20;;;8.30;;
3085;SDS011;52812;48.960;9.108;2024-01-15T14:35:04;13.97;;;8.37;;
3085;SDS011;52812;48.960;9.108;2024-01-15T14:37:30;17.10;;;8.90;;
3085;SDS011;52812;48.960;9.108;2024-01-15T14:39:56;14.50;;;8.60;;
3085;SDS011;52812;48.960;9.108;2024-01-15T14:42:22;17.27;;;8.17;;
3085;SDS011;52812;48.960;9.108;2024-01-15T14:44:49;12.40;;;8.03;;
3085;SDS011;52812;48.960;9.108;2024-01-15T14:47:14;15.80;;;8.47;;
3085;SDS011;52812;48.960;9.108;2024-01-15T14:49:40;14.03;;;8.03;;
3085;SDS011;52812;48.960;9.108;2024-01-15T14:52:06;16.27;;;9.70;;
3085;SDS011;52812;48.960;9.108;2024-01-15T14:54:31;14.53;;;8.27;;
3085;SDS011;52812;48.960;9.108;2024-01-15T14:56:57;16.03;;;9.10;;